<?xml version="1.0" encoding="UTF-8" standalone="no" ?>
<gpx xmlns="http://www.topografix.com/GPX/1/1" xmlns:xsi="http://www.w3.org/2001/XMLSchema-instance" xsi:schemaLocation="http://www.topografix.com/GPX/1/1 http://www.topografix.com/GPX/1/1/gpx.xsd" version="1.1" creator="VisuGPX - https://www.visugpx.com">
  <metadata>
    <name>J1 PontTransbordeur_8-12km</name>
    <desc><![CDATA[J1 Rochefort 2025 8 et 12km]]></desc>
  </metadata>
  <trk>
    <name><![CDATA[Rochefort Pont Transbordeur 12 km GNE-20055881]]></name>
    <extensions>
      <line xmlns="http://www.topografix.com/GPX/gpx_style/0/2">
        <color>0000FF</color>
        <width>4</width>
      </line>
    </extensions>
    <trkseg>
      <trkpt lat="45.9175" lon="-0.96071">
        <ele>-2</ele>
        <time>2025-01-11T12:30:00Z</time>
      </trkpt>
      <trkpt lat="45.91747" lon="-0.96071">
        <ele>-2</ele>
        <time>2025-01-11T12:30:04Z</time>
      </trkpt>
      <trkpt lat="45.91744" lon="-0.96071">
        <ele>-1</ele>
        <time>2025-01-11T12:30:08Z</time>
      </trkpt>
      <trkpt lat="45.91714" lon="-0.96072">
        <ele>3</ele>
        <time>2025-01-11T12:30:48Z</time>
      </trkpt>
      <trkpt lat="45.91687" lon="-0.96076">
        <ele>6</ele>
        <time>2025-01-11T12:31:24Z</time>
      </trkpt>
      <trkpt lat="45.91687" lon="-0.96076">
        <ele>6</ele>
        <time>2025-01-11T12:31:24Z</time>
      </trkpt>
      <trkpt lat="45.9168" lon="-0.96076">
        <ele>7</ele>
        <time>2025-01-11T12:31:34Z</time>
      </trkpt>
      <trkpt lat="45.91538" lon="-0.96066">
        <ele>12</ele>
        <time>2025-01-11T12:34:43Z</time>
      </trkpt>
      <trkpt lat="45.91537" lon="-0.96066">
        <ele>12</ele>
        <time>2025-01-11T12:34:45Z</time>
      </trkpt>
      <trkpt lat="45.91537" lon="-0.96066">
        <ele>12</ele>
        <time>2025-01-11T12:34:45Z</time>
      </trkpt>
      <trkpt lat="45.91526" lon="-0.96064">
        <ele>12</ele>
        <time>2025-01-11T12:34:59Z</time>
      </trkpt>
      <trkpt lat="45.91497" lon="-0.96043">
        <ele>12</ele>
        <time>2025-01-11T12:35:43Z</time>
      </trkpt>
      <trkpt lat="45.9137" lon="-0.95954">
        <ele>10</ele>
        <time>2025-01-11T12:38:51Z</time>
      </trkpt>
      <trkpt lat="45.9137" lon="-0.95954">
        <ele>10</ele>
        <time>2025-01-11T12:38:51Z</time>
      </trkpt>
      <trkpt lat="45.91366" lon="-0.95951">
        <ele>10</ele>
        <time>2025-01-11T12:38:57Z</time>
      </trkpt>
      <trkpt lat="45.91362" lon="-0.95944">
        <ele>10</ele>
        <time>2025-01-11T12:39:06Z</time>
      </trkpt>
      <trkpt lat="45.91301" lon="-0.95944">
        <ele>11</ele>
        <time>2025-01-11T12:40:27Z</time>
      </trkpt>
      <trkpt lat="45.91256" lon="-0.95946">
        <ele>10</ele>
        <time>2025-01-11T12:41:27Z</time>
      </trkpt>
      <trkpt lat="45.91213" lon="-0.95948">
        <ele>9</ele>
        <time>2025-01-11T12:42:25Z</time>
      </trkpt>
      <trkpt lat="45.91069" lon="-0.95953">
        <ele>8</ele>
        <time>2025-01-11T12:45:37Z</time>
      </trkpt>
      <trkpt lat="45.91064" lon="-0.95956">
        <ele>9</ele>
        <time>2025-01-11T12:45:44Z</time>
      </trkpt>
      <trkpt lat="45.91061" lon="-0.95959">
        <ele>9</ele>
        <time>2025-01-11T12:45:49Z</time>
      </trkpt>
      <trkpt lat="45.91054" lon="-0.9598">
        <ele>9</ele>
        <time>2025-01-11T12:46:11Z</time>
      </trkpt>
      <trkpt lat="45.91039" lon="-0.95974">
        <ele>9</ele>
        <time>2025-01-11T12:46:32Z</time>
      </trkpt>
      <trkpt lat="45.91022" lon="-0.95968">
        <ele>8</ele>
        <time>2025-01-11T12:46:55Z</time>
      </trkpt>
      <trkpt lat="45.90985" lon="-0.9596">
        <ele>8</ele>
        <time>2025-01-11T12:47:45Z</time>
      </trkpt>
      <trkpt lat="45.90951" lon="-0.95957">
        <ele>8</ele>
        <time>2025-01-11T12:48:30Z</time>
      </trkpt>
      <trkpt lat="45.90915" lon="-0.95959">
        <ele>8</ele>
        <time>2025-01-11T12:49:18Z</time>
      </trkpt>
      <trkpt lat="45.90895" lon="-0.95954">
        <ele>8</ele>
        <time>2025-01-11T12:49:45Z</time>
      </trkpt>
      <trkpt lat="45.90892" lon="-0.95939">
        <ele>7</ele>
        <time>2025-01-11T12:50:00Z</time>
      </trkpt>
      <trkpt lat="45.9086" lon="-0.95897">
        <ele>6</ele>
        <time>2025-01-11T12:50:58Z</time>
      </trkpt>
      <trkpt lat="45.90853" lon="-0.95884">
        <ele>7</ele>
        <time>2025-01-11T12:51:13Z</time>
      </trkpt>
      <trkpt lat="45.90849" lon="-0.95868">
        <ele>7</ele>
        <time>2025-01-11T12:51:29Z</time>
      </trkpt>
      <trkpt lat="45.90847" lon="-0.95843">
        <ele>7</ele>
        <time>2025-01-11T12:51:52Z</time>
      </trkpt>
      <trkpt lat="45.9085" lon="-0.95842">
        <ele>7</ele>
        <time>2025-01-11T12:51:56Z</time>
      </trkpt>
      <trkpt lat="45.90847" lon="-0.95843">
        <ele>7</ele>
        <time>2025-01-11T12:52:00Z</time>
      </trkpt>
      <trkpt lat="45.90849" lon="-0.95868">
        <ele>7</ele>
        <time>2025-01-11T12:52:24Z</time>
      </trkpt>
      <trkpt lat="45.90839" lon="-0.95873">
        <ele>7</ele>
        <time>2025-01-11T12:52:38Z</time>
      </trkpt>
      <trkpt lat="45.90828" lon="-0.95889">
        <ele>6</ele>
        <time>2025-01-11T12:52:59Z</time>
      </trkpt>
      <trkpt lat="45.90823" lon="-0.95896">
        <ele>6</ele>
        <time>2025-01-11T12:53:08Z</time>
      </trkpt>
      <trkpt lat="45.90785" lon="-0.95897">
        <ele>7</ele>
        <time>2025-01-11T12:53:59Z</time>
      </trkpt>
      <trkpt lat="45.90742" lon="-0.95895">
        <ele>7</ele>
        <time>2025-01-11T12:54:56Z</time>
      </trkpt>
      <trkpt lat="45.90684" lon="-0.95891">
        <ele>7</ele>
        <time>2025-01-11T12:56:14Z</time>
      </trkpt>
      <trkpt lat="45.90621" lon="-0.95887">
        <ele>8</ele>
        <time>2025-01-11T12:57:38Z</time>
      </trkpt>
      <trkpt lat="45.90558" lon="-0.95874">
        <ele>8</ele>
        <time>2025-01-11T12:59:03Z</time>
      </trkpt>
      <trkpt lat="45.90479" lon="-0.95854">
        <ele>8</ele>
        <time>2025-01-11T13:00:50Z</time>
      </trkpt>
      <trkpt lat="45.90396" lon="-0.95847">
        <ele>9</ele>
        <time>2025-01-11T13:02:41Z</time>
      </trkpt>
      <trkpt lat="45.90322" lon="-0.95834">
        <ele>9</ele>
        <time>2025-01-11T13:04:20Z</time>
      </trkpt>
      <trkpt lat="45.90285" lon="-0.95823">
        <ele>9</ele>
        <time>2025-01-11T13:05:11Z</time>
      </trkpt>
      <trkpt lat="45.90265" lon="-0.9582">
        <ele>9</ele>
        <time>2025-01-11T13:05:38Z</time>
      </trkpt>
      <trkpt lat="45.90255" lon="-0.95817">
        <ele>9</ele>
        <time>2025-01-11T13:05:51Z</time>
      </trkpt>
      <trkpt lat="45.90252" lon="-0.95824">
        <ele>9</ele>
        <time>2025-01-11T13:05:59Z</time>
      </trkpt>
      <trkpt lat="45.90228" lon="-0.95829">
        <ele>10</ele>
        <time>2025-01-11T13:06:31Z</time>
      </trkpt>
      <trkpt lat="45.90227" lon="-0.9582">
        <ele>10</ele>
        <time>2025-01-11T13:06:40Z</time>
      </trkpt>
      <trkpt lat="45.90228" lon="-0.95829">
        <ele>10</ele>
        <time>2025-01-11T13:06:48Z</time>
      </trkpt>
      <trkpt lat="45.90221" lon="-0.95829">
        <ele>10</ele>
        <time>2025-01-11T13:06:57Z</time>
      </trkpt>
      <trkpt lat="45.90213" lon="-0.95771">
        <ele>10</ele>
        <time>2025-01-11T13:07:52Z</time>
      </trkpt>
      <trkpt lat="45.90204" lon="-0.95695">
        <ele>10</ele>
        <time>2025-01-11T13:09:04Z</time>
      </trkpt>
      <trkpt lat="45.90202" lon="-0.95687">
        <ele>10</ele>
        <time>2025-01-11T13:09:12Z</time>
      </trkpt>
      <trkpt lat="45.90204" lon="-0.95681">
        <ele>10</ele>
        <time>2025-01-11T13:09:18Z</time>
      </trkpt>
      <trkpt lat="45.90195" lon="-0.95624">
        <ele>10</ele>
        <time>2025-01-11T13:10:12Z</time>
      </trkpt>
      <trkpt lat="45.90183" lon="-0.95537">
        <ele>10</ele>
        <time>2025-01-11T13:11:35Z</time>
      </trkpt>
      <trkpt lat="45.90168" lon="-0.95467">
        <ele>9</ele>
        <time>2025-01-11T13:12:43Z</time>
      </trkpt>
      <trkpt lat="45.90163" lon="-0.95443">
        <ele>9</ele>
        <time>2025-01-11T13:13:06Z</time>
      </trkpt>
      <trkpt lat="45.90154" lon="-0.95403">
        <ele>9</ele>
        <time>2025-01-11T13:13:45Z</time>
      </trkpt>
      <trkpt lat="45.90149" lon="-0.95397">
        <ele>9</ele>
        <time>2025-01-11T13:13:54Z</time>
      </trkpt>
      <trkpt lat="45.90147" lon="-0.9539">
        <ele>9</ele>
        <time>2025-01-11T13:14:01Z</time>
      </trkpt>
      <trkpt lat="45.90152" lon="-0.95386">
        <ele>9</ele>
        <time>2025-01-11T13:14:08Z</time>
      </trkpt>
      <trkpt lat="45.901" lon="-0.95278">
        <ele>9</ele>
        <time>2025-01-11T13:16:10Z</time>
      </trkpt>
      <trkpt lat="45.90086" lon="-0.9525">
        <ele>9</ele>
        <time>2025-01-11T13:16:42Z</time>
      </trkpt>
      <trkpt lat="45.9006" lon="-0.95198">
        <ele>9</ele>
        <time>2025-01-11T13:17:42Z</time>
      </trkpt>
      <trkpt lat="45.90037" lon="-0.95158">
        <ele>9</ele>
        <time>2025-01-11T13:18:30Z</time>
      </trkpt>
      <trkpt lat="45.90022" lon="-0.95138">
        <ele>9</ele>
        <time>2025-01-11T13:18:57Z</time>
      </trkpt>
      <trkpt lat="45.89996" lon="-0.95119">
        <ele>9</ele>
        <time>2025-01-11T13:19:36Z</time>
      </trkpt>
      <trkpt lat="45.89993" lon="-0.95115">
        <ele>9</ele>
        <time>2025-01-11T13:19:42Z</time>
      </trkpt>
      <trkpt lat="45.89979" lon="-0.95092">
        <ele>9</ele>
        <time>2025-01-11T13:20:10Z</time>
      </trkpt>
      <trkpt lat="45.89961" lon="-0.95056">
        <ele>9</ele>
        <time>2025-01-11T13:20:51Z</time>
      </trkpt>
      <trkpt lat="45.89936" lon="-0.95068">
        <ele>9</ele>
        <time>2025-01-11T13:21:26Z</time>
      </trkpt>
      <trkpt lat="45.89922" lon="-0.95028">
        <ele>9</ele>
        <time>2025-01-11T13:22:08Z</time>
      </trkpt>
      <trkpt lat="45.89918" lon="-0.95015">
        <ele>9</ele>
        <time>2025-01-11T13:22:21Z</time>
      </trkpt>
      <trkpt lat="45.89879" lon="-0.94825">
        <ele>9</ele>
        <time>2025-01-11T13:25:25Z</time>
      </trkpt>
      <trkpt lat="45.89868" lon="-0.94783">
        <ele>10</ele>
        <time>2025-01-11T13:26:07Z</time>
      </trkpt>
      <trkpt lat="45.89842" lon="-0.94708">
        <ele>9</ele>
        <time>2025-01-11T13:27:25Z</time>
      </trkpt>
      <trkpt lat="45.89839" lon="-0.94695">
        <ele>9</ele>
        <time>2025-01-11T13:27:37Z</time>
      </trkpt>
      <trkpt lat="45.89839" lon="-0.9469">
        <ele>9</ele>
        <time>2025-01-11T13:27:42Z</time>
      </trkpt>
      <trkpt lat="45.89842" lon="-0.94667">
        <ele>9</ele>
        <time>2025-01-11T13:28:04Z</time>
      </trkpt>
      <trkpt lat="45.89845" lon="-0.9466">
        <ele>9</ele>
        <time>2025-01-11T13:28:11Z</time>
      </trkpt>
      <trkpt lat="45.89851" lon="-0.94652">
        <ele>8</ele>
        <time>2025-01-11T13:28:22Z</time>
      </trkpt>
      <trkpt lat="45.89851" lon="-0.94639">
        <ele>8</ele>
        <time>2025-01-11T13:28:34Z</time>
      </trkpt>
      <trkpt lat="45.89863" lon="-0.94585">
        <ele>8</ele>
        <time>2025-01-11T13:29:27Z</time>
      </trkpt>
      <trkpt lat="45.89863" lon="-0.94546">
        <ele>8</ele>
        <time>2025-01-11T13:30:03Z</time>
      </trkpt>
      <trkpt lat="45.89857" lon="-0.9451">
        <ele>9</ele>
        <time>2025-01-11T13:30:38Z</time>
      </trkpt>
      <trkpt lat="45.89848" lon="-0.94461">
        <ele>9</ele>
        <time>2025-01-11T13:31:25Z</time>
      </trkpt>
      <trkpt lat="45.8984" lon="-0.94432">
        <ele>9</ele>
        <time>2025-01-11T13:31:54Z</time>
      </trkpt>
      <trkpt lat="45.89837" lon="-0.9441">
        <ele>9</ele>
        <time>2025-01-11T13:32:14Z</time>
      </trkpt>
      <trkpt lat="45.89835" lon="-0.94384">
        <ele>9</ele>
        <time>2025-01-11T13:32:39Z</time>
      </trkpt>
      <trkpt lat="45.89843" lon="-0.94301">
        <ele>10</ele>
        <time>2025-01-11T13:33:57Z</time>
      </trkpt>
      <trkpt lat="45.89841" lon="-0.94202">
        <ele>11</ele>
        <time>2025-01-11T13:35:28Z</time>
      </trkpt>
      <trkpt lat="45.89842" lon="-0.94182">
        <ele>11</ele>
        <time>2025-01-11T13:35:47Z</time>
      </trkpt>
      <trkpt lat="45.89848" lon="-0.94129">
        <ele>11</ele>
        <time>2025-01-11T13:36:37Z</time>
      </trkpt>
      <trkpt lat="45.89847" lon="-0.94111">
        <ele>11</ele>
        <time>2025-01-11T13:36:54Z</time>
      </trkpt>
      <trkpt lat="45.89843" lon="-0.94079">
        <ele>11</ele>
        <time>2025-01-11T13:37:24Z</time>
      </trkpt>
      <trkpt lat="45.89837" lon="-0.94053">
        <ele>11</ele>
        <time>2025-01-11T13:37:49Z</time>
      </trkpt>
      <trkpt lat="45.89822" lon="-0.93975">
        <ele>11</ele>
        <time>2025-01-11T13:39:05Z</time>
      </trkpt>
      <trkpt lat="45.89807" lon="-0.9388">
        <ele>11</ele>
        <time>2025-01-11T13:40:35Z</time>
      </trkpt>
      <trkpt lat="45.89793" lon="-0.93836">
        <ele>11</ele>
        <time>2025-01-11T13:41:20Z</time>
      </trkpt>
      <trkpt lat="45.89776" lon="-0.9379">
        <ele>11</ele>
        <time>2025-01-11T13:42:08Z</time>
      </trkpt>
      <trkpt lat="45.8978" lon="-0.93792">
        <ele>11</ele>
        <time>2025-01-11T13:42:14Z</time>
      </trkpt>
      <trkpt lat="45.89788" lon="-0.93788">
        <ele>11</ele>
        <time>2025-01-11T13:42:25Z</time>
      </trkpt>
      <trkpt lat="45.89811" lon="-0.93764">
        <ele>12</ele>
        <time>2025-01-11T13:43:03Z</time>
      </trkpt>
      <trkpt lat="45.89848" lon="-0.93719">
        <ele>11</ele>
        <time>2025-01-11T13:44:08Z</time>
      </trkpt>
      <trkpt lat="45.89855" lon="-0.93692">
        <ele>10</ele>
        <time>2025-01-11T13:44:35Z</time>
      </trkpt>
      <trkpt lat="45.89871" lon="-0.93653">
        <ele>8</ele>
        <time>2025-01-11T13:45:17Z</time>
      </trkpt>
      <trkpt lat="45.89881" lon="-0.93638">
        <ele>8</ele>
        <time>2025-01-11T13:45:36Z</time>
      </trkpt>
      <trkpt lat="45.89889" lon="-0.93631">
        <ele>7</ele>
        <time>2025-01-11T13:45:48Z</time>
      </trkpt>
      <trkpt lat="45.8989" lon="-0.93628">
        <ele>7</ele>
        <time>2025-01-11T13:45:52Z</time>
      </trkpt>
      <trkpt lat="45.89888" lon="-0.93622">
        <ele>7</ele>
        <time>2025-01-11T13:45:58Z</time>
      </trkpt>
      <trkpt lat="45.8988" lon="-0.93614">
        <ele>7</ele>
        <time>2025-01-11T13:46:11Z</time>
      </trkpt>
      <trkpt lat="45.89879" lon="-0.93603">
        <ele>7</ele>
        <time>2025-01-11T13:46:21Z</time>
      </trkpt>
      <trkpt lat="45.89872" lon="-0.93594">
        <ele>7</ele>
        <time>2025-01-11T13:46:34Z</time>
      </trkpt>
      <trkpt lat="45.89869" lon="-0.93581">
        <ele>7</ele>
        <time>2025-01-11T13:46:46Z</time>
      </trkpt>
      <trkpt lat="45.89865" lon="-0.9358">
        <ele>7</ele>
        <time>2025-01-11T13:46:52Z</time>
      </trkpt>
      <trkpt lat="45.89852" lon="-0.93558">
        <ele>7</ele>
        <time>2025-01-11T13:47:19Z</time>
      </trkpt>
      <trkpt lat="45.89847" lon="-0.93553">
        <ele>7</ele>
        <time>2025-01-11T13:47:27Z</time>
      </trkpt>
      <trkpt lat="45.89842" lon="-0.93541">
        <ele>7</ele>
        <time>2025-01-11T13:47:40Z</time>
      </trkpt>
      <trkpt lat="45.89836" lon="-0.93536">
        <ele>7</ele>
        <time>2025-01-11T13:47:49Z</time>
      </trkpt>
      <trkpt lat="45.89821" lon="-0.93512">
        <ele>7</ele>
        <time>2025-01-11T13:48:19Z</time>
      </trkpt>
      <trkpt lat="45.89817" lon="-0.93498">
        <ele>6</ele>
        <time>2025-01-11T13:48:33Z</time>
      </trkpt>
      <trkpt lat="45.89817" lon="-0.93493">
        <ele>6</ele>
        <time>2025-01-11T13:48:38Z</time>
      </trkpt>
      <trkpt lat="45.89815" lon="-0.93487">
        <ele>6</ele>
        <time>2025-01-11T13:48:44Z</time>
      </trkpt>
      <trkpt lat="45.89813" lon="-0.93475">
        <ele>6</ele>
        <time>2025-01-11T13:48:55Z</time>
      </trkpt>
      <trkpt lat="45.89817" lon="-0.93467">
        <ele>5</ele>
        <time>2025-01-11T13:49:04Z</time>
      </trkpt>
      <trkpt lat="45.89823" lon="-0.93463">
        <ele>5</ele>
        <time>2025-01-11T13:49:13Z</time>
      </trkpt>
      <trkpt lat="45.89822" lon="-0.93452">
        <ele>5</ele>
        <time>2025-01-11T13:49:23Z</time>
      </trkpt>
      <trkpt lat="45.89832" lon="-0.93441">
        <ele>5</ele>
        <time>2025-01-11T13:49:40Z</time>
      </trkpt>
      <trkpt lat="45.89846" lon="-0.93435">
        <ele>5</ele>
        <time>2025-01-11T13:50:00Z</time>
      </trkpt>
      <trkpt lat="45.8985" lon="-0.93423">
        <ele>5</ele>
        <time>2025-01-11T13:50:12Z</time>
      </trkpt>
      <trkpt lat="45.89866" lon="-0.93424">
        <ele>5</ele>
        <time>2025-01-11T13:50:34Z</time>
      </trkpt>
      <trkpt lat="45.89875" lon="-0.9343">
        <ele>5</ele>
        <time>2025-01-11T13:50:47Z</time>
      </trkpt>
      <trkpt lat="45.89878" lon="-0.93421">
        <ele>5</ele>
        <time>2025-01-11T13:50:56Z</time>
      </trkpt>
      <trkpt lat="45.89884" lon="-0.93415">
        <ele>5</ele>
        <time>2025-01-11T13:51:06Z</time>
      </trkpt>
      <trkpt lat="45.8988" lon="-0.9339">
        <ele>5</ele>
        <time>2025-01-11T13:51:30Z</time>
      </trkpt>
      <trkpt lat="45.89871" lon="-0.93366">
        <ele>4</ele>
        <time>2025-01-11T13:51:55Z</time>
      </trkpt>
      <trkpt lat="45.89829" lon="-0.93282">
        <ele>3</ele>
        <time>2025-01-11T13:53:31Z</time>
      </trkpt>
      <trkpt lat="45.89804" lon="-0.93216">
        <ele>3</ele>
        <time>2025-01-11T13:54:41Z</time>
      </trkpt>
      <trkpt lat="45.89787" lon="-0.93229">
        <ele>4</ele>
        <time>2025-01-11T13:55:06Z</time>
      </trkpt>
      <trkpt lat="45.89783" lon="-0.93227">
        <ele>4</ele>
        <time>2025-01-11T13:55:12Z</time>
      </trkpt>
      <trkpt lat="45.89752" lon="-0.93131">
        <ele>4</ele>
        <time>2025-01-11T13:56:50Z</time>
      </trkpt>
      <trkpt lat="45.89748" lon="-0.93111">
        <ele>4</ele>
        <time>2025-01-11T13:57:10Z</time>
      </trkpt>
      <trkpt lat="45.89747" lon="-0.93107">
        <ele>4</ele>
        <time>2025-01-11T13:57:14Z</time>
      </trkpt>
      <trkpt lat="45.89684" lon="-0.93101">
        <ele>4</ele>
        <time>2025-01-11T13:58:38Z</time>
      </trkpt>
      <trkpt lat="45.89319" lon="-0.93072">
        <ele>3</ele>
        <time>2025-01-11T14:06:46Z</time>
      </trkpt>
      <trkpt lat="45.893" lon="-0.93073">
        <ele>3</ele>
        <time>2025-01-11T14:07:11Z</time>
      </trkpt>
      <trkpt lat="45.89289" lon="-0.93077">
        <ele>4</ele>
        <time>2025-01-11T14:07:26Z</time>
      </trkpt>
      <trkpt lat="45.89278" lon="-0.93085">
        <ele>4</ele>
        <time>2025-01-11T14:07:43Z</time>
      </trkpt>
      <trkpt lat="45.89262" lon="-0.93104">
        <ele>4</ele>
        <time>2025-01-11T14:08:10Z</time>
      </trkpt>
      <trkpt lat="45.89055" lon="-0.93413">
        <ele>5</ele>
        <time>2025-01-11T14:14:49Z</time>
      </trkpt>
      <trkpt lat="45.89046" lon="-0.93422">
        <ele>5</ele>
        <time>2025-01-11T14:15:03Z</time>
      </trkpt>
      <trkpt lat="45.89019" lon="-0.93465">
        <ele>5</ele>
        <time>2025-01-11T14:15:57Z</time>
      </trkpt>
      <trkpt lat="45.88988" lon="-0.93521">
        <ele>5</ele>
        <time>2025-01-11T14:17:04Z</time>
      </trkpt>
      <trkpt lat="45.88961" lon="-0.93567">
        <ele>3</ele>
        <time>2025-01-11T14:18:00Z</time>
      </trkpt>
      <trkpt lat="45.88874" lon="-0.93731">
        <ele>4</ele>
        <time>2025-01-11T14:21:11Z</time>
      </trkpt>
      <trkpt lat="45.88851" lon="-0.93764">
        <ele>4</ele>
        <time>2025-01-11T14:21:54Z</time>
      </trkpt>
      <trkpt lat="45.88721" lon="-0.93885">
        <ele>3</ele>
        <time>2025-01-11T14:25:21Z</time>
      </trkpt>
      <trkpt lat="45.88696" lon="-0.9391">
        <ele>3</ele>
        <time>2025-01-11T14:26:02Z</time>
      </trkpt>
      <trkpt lat="45.88696" lon="-0.93925">
        <ele>3</ele>
        <time>2025-01-11T14:26:16Z</time>
      </trkpt>
      <trkpt lat="45.88676" lon="-0.9395">
        <ele>4</ele>
        <time>2025-01-11T14:26:51Z</time>
      </trkpt>
      <trkpt lat="45.8865" lon="-0.9397">
        <ele>4</ele>
        <time>2025-01-11T14:27:30Z</time>
      </trkpt>
      <trkpt lat="45.88613" lon="-0.94006">
        <ele>5</ele>
        <time>2025-01-11T14:28:30Z</time>
      </trkpt>
      <trkpt lat="45.88579" lon="-0.9403">
        <ele>5</ele>
        <time>2025-01-11T14:29:21Z</time>
      </trkpt>
      <trkpt lat="45.88552" lon="-0.94038">
        <ele>5</ele>
        <time>2025-01-11T14:29:57Z</time>
      </trkpt>
      <trkpt lat="45.88541" lon="-0.94049">
        <ele>4</ele>
        <time>2025-01-11T14:30:15Z</time>
      </trkpt>
      <trkpt lat="45.88497" lon="-0.94087">
        <ele>3</ele>
        <time>2025-01-11T14:31:24Z</time>
      </trkpt>
      <trkpt lat="45.88419" lon="-0.94162">
        <ele>5</ele>
        <time>2025-01-11T14:33:29Z</time>
      </trkpt>
      <trkpt lat="45.88357" lon="-0.94222">
        <ele>4</ele>
        <time>2025-01-11T14:35:09Z</time>
      </trkpt>
      <trkpt lat="45.88002" lon="-0.94559">
        <ele>4</ele>
        <time>2025-01-11T14:44:37Z</time>
      </trkpt>
      <trkpt lat="45.87991" lon="-0.94575">
        <ele>4</ele>
        <time>2025-01-11T14:44:58Z</time>
      </trkpt>
      <trkpt lat="45.87969" lon="-0.9459">
        <ele>4</ele>
        <time>2025-01-11T14:45:30Z</time>
      </trkpt>
      <trkpt lat="45.8794" lon="-0.94616">
        <ele>4</ele>
        <time>2025-01-11T14:46:16Z</time>
      </trkpt>
      <trkpt lat="45.87904" lon="-0.94656">
        <ele>4</ele>
        <time>2025-01-11T14:47:16Z</time>
      </trkpt>
      <trkpt lat="45.87874" lon="-0.94694">
        <ele>4</ele>
        <time>2025-01-11T14:48:10Z</time>
      </trkpt>
      <trkpt lat="45.87851" lon="-0.94731">
        <ele>4</ele>
        <time>2025-01-11T14:48:56Z</time>
      </trkpt>
      <trkpt lat="45.87842" lon="-0.94759">
        <ele>4</ele>
        <time>2025-01-11T14:49:25Z</time>
      </trkpt>
      <trkpt lat="45.87838" lon="-0.94787">
        <ele>4</ele>
        <time>2025-01-11T14:49:51Z</time>
      </trkpt>
      <trkpt lat="45.87849" lon="-0.9478">
        <ele>4</ele>
        <time>2025-01-11T14:50:07Z</time>
      </trkpt>
      <trkpt lat="45.87856" lon="-0.9477">
        <ele>4</ele>
        <time>2025-01-11T14:50:20Z</time>
      </trkpt>
      <trkpt lat="45.8786" lon="-0.94772">
        <ele>5</ele>
        <time>2025-01-11T14:50:26Z</time>
      </trkpt>
      <trkpt lat="45.87874" lon="-0.94752">
        <ele>5</ele>
        <time>2025-01-11T14:50:52Z</time>
      </trkpt>
      <trkpt lat="45.87876" lon="-0.94759">
        <ele>5</ele>
        <time>2025-01-11T14:50:59Z</time>
      </trkpt>
      <trkpt lat="45.87887" lon="-0.94763">
        <ele>5</ele>
        <time>2025-01-11T14:51:14Z</time>
      </trkpt>
      <trkpt lat="45.87901" lon="-0.94775">
        <ele>6</ele>
        <time>2025-01-11T14:51:36Z</time>
      </trkpt>
      <trkpt lat="45.87904" lon="-0.94775">
        <ele>6</ele>
        <time>2025-01-11T14:51:40Z</time>
      </trkpt>
      <trkpt lat="45.87912" lon="-0.94791">
        <ele>6</ele>
        <time>2025-01-11T14:51:59Z</time>
      </trkpt>
      <trkpt lat="45.87917" lon="-0.94793">
        <ele>7</ele>
        <time>2025-01-11T14:52:05Z</time>
      </trkpt>
      <trkpt lat="45.87924" lon="-0.94812">
        <ele>7</ele>
        <time>2025-01-11T14:52:25Z</time>
      </trkpt>
      <trkpt lat="45.87945" lon="-0.94835">
        <ele>8</ele>
        <time>2025-01-11T14:53:01Z</time>
      </trkpt>
      <trkpt lat="45.8796" lon="-0.94865">
        <ele>9</ele>
        <time>2025-01-11T14:53:35Z</time>
      </trkpt>
      <trkpt lat="45.87965" lon="-0.94868">
        <ele>9</ele>
        <time>2025-01-11T14:53:42Z</time>
      </trkpt>
      <trkpt lat="45.87966" lon="-0.9488">
        <ele>9</ele>
        <time>2025-01-11T14:53:53Z</time>
      </trkpt>
      <trkpt lat="45.87991" lon="-0.9495">
        <ele>11</ele>
        <time>2025-01-11T14:55:07Z</time>
      </trkpt>
      <trkpt lat="45.87996" lon="-0.94986">
        <ele>12</ele>
        <time>2025-01-11T14:55:41Z</time>
      </trkpt>
      <trkpt lat="45.88" lon="-0.95046">
        <ele>13</ele>
        <time>2025-01-11T14:56:37Z</time>
      </trkpt>
      <trkpt lat="45.87997" lon="-0.95065">
        <ele>13</ele>
        <time>2025-01-11T14:56:55Z</time>
      </trkpt>
      <trkpt lat="45.87989" lon="-0.95081">
        <ele>13</ele>
        <time>2025-01-11T14:57:13Z</time>
      </trkpt>
      <trkpt lat="45.87968" lon="-0.95091">
        <ele>12</ele>
        <time>2025-01-11T14:57:43Z</time>
      </trkpt>
      <trkpt lat="45.87962" lon="-0.95098">
        <ele>11</ele>
        <time>2025-01-11T14:57:53Z</time>
      </trkpt>
      <trkpt lat="45.87937" lon="-0.95114">
        <ele>10</ele>
        <time>2025-01-11T14:58:29Z</time>
      </trkpt>
      <trkpt lat="45.87927" lon="-0.95123">
        <ele>10</ele>
        <time>2025-01-11T14:58:45Z</time>
      </trkpt>
      <trkpt lat="45.87913" lon="-0.9513">
        <ele>9</ele>
        <time>2025-01-11T14:59:05Z</time>
      </trkpt>
      <trkpt lat="45.87895" lon="-0.95132">
        <ele>8</ele>
        <time>2025-01-11T14:59:29Z</time>
      </trkpt>
      <trkpt lat="45.87887" lon="-0.95149">
        <ele>7</ele>
        <time>2025-01-11T14:59:48Z</time>
      </trkpt>
      <trkpt lat="45.87877" lon="-0.9518">
        <ele>6</ele>
        <time>2025-01-11T15:00:20Z</time>
      </trkpt>
      <trkpt lat="45.87876" lon="-0.95184">
        <ele>6</ele>
        <time>2025-01-11T15:00:24Z</time>
      </trkpt>
      <trkpt lat="45.8786" lon="-0.95244">
        <ele>4</ele>
        <time>2025-01-11T15:01:23Z</time>
      </trkpt>
      <trkpt lat="45.8785" lon="-0.9535">
        <ele>5</ele>
        <time>2025-01-11T15:03:03Z</time>
      </trkpt>
      <trkpt lat="45.8785" lon="-0.95428">
        <ele>5</ele>
        <time>2025-01-11T15:04:15Z</time>
      </trkpt>
      <trkpt lat="45.87855" lon="-0.95461">
        <ele>5</ele>
        <time>2025-01-11T15:04:47Z</time>
      </trkpt>
      <trkpt lat="45.87871" lon="-0.95499">
        <ele>5</ele>
        <time>2025-01-11T15:05:28Z</time>
      </trkpt>
      <trkpt lat="45.87897" lon="-0.95535">
        <ele>6</ele>
        <time>2025-01-11T15:06:16Z</time>
      </trkpt>
      <trkpt lat="45.87924" lon="-0.95563">
        <ele>6</ele>
        <time>2025-01-11T15:07:01Z</time>
      </trkpt>
      <trkpt lat="45.87942" lon="-0.95586">
        <ele>6</ele>
        <time>2025-01-11T15:07:33Z</time>
      </trkpt>
      <trkpt lat="45.87995" lon="-0.95672">
        <ele>6</ele>
        <time>2025-01-11T15:09:19Z</time>
      </trkpt>
      <trkpt lat="45.88039" lon="-0.95704">
        <ele>7</ele>
        <time>2025-01-11T15:10:25Z</time>
      </trkpt>
      <trkpt lat="45.8807" lon="-0.95739">
        <ele>7</ele>
        <time>2025-01-11T15:11:18Z</time>
      </trkpt>
      <trkpt lat="45.88099" lon="-0.95805">
        <ele>9</ele>
        <time>2025-01-11T15:12:30Z</time>
      </trkpt>
      <trkpt lat="45.88109" lon="-0.9584">
        <ele>10</ele>
        <time>2025-01-11T15:13:06Z</time>
      </trkpt>
      <trkpt lat="45.8811" lon="-0.95839">
        <ele>10</ele>
        <time>2025-01-11T15:13:07Z</time>
      </trkpt>
      <trkpt lat="45.88115" lon="-0.95836">
        <ele>10</ele>
        <time>2025-01-11T15:13:14Z</time>
      </trkpt>
      <trkpt lat="45.88141" lon="-0.95831">
        <ele>9</ele>
        <time>2025-01-11T15:13:49Z</time>
      </trkpt>
      <trkpt lat="45.8816" lon="-0.95817">
        <ele>9</ele>
        <time>2025-01-11T15:14:18Z</time>
      </trkpt>
      <trkpt lat="45.882" lon="-0.9578">
        <ele>10</ele>
        <time>2025-01-11T15:15:21Z</time>
      </trkpt>
      <trkpt lat="45.88229" lon="-0.95748">
        <ele>10</ele>
        <time>2025-01-11T15:16:10Z</time>
      </trkpt>
      <trkpt lat="45.88328" lon="-0.95666">
        <ele>11</ele>
        <time>2025-01-11T15:18:43Z</time>
      </trkpt>
      <trkpt lat="45.88343" lon="-0.95662">
        <ele>11</ele>
        <time>2025-01-11T15:19:03Z</time>
      </trkpt>
      <trkpt lat="45.88376" lon="-0.95663">
        <ele>12</ele>
        <time>2025-01-11T15:19:47Z</time>
      </trkpt>
      <trkpt lat="45.88393" lon="-0.95658">
        <ele>13</ele>
        <time>2025-01-11T15:20:10Z</time>
      </trkpt>
      <trkpt lat="45.88438" lon="-0.95621">
        <ele>12</ele>
        <time>2025-01-11T15:21:19Z</time>
      </trkpt>
      <trkpt lat="45.88506" lon="-0.95549">
        <ele>12</ele>
        <time>2025-01-11T15:23:12Z</time>
      </trkpt>
      <trkpt lat="45.88568" lon="-0.95503">
        <ele>13</ele>
        <time>2025-01-11T15:24:45Z</time>
      </trkpt>
      <trkpt lat="45.88609" lon="-0.95476">
        <ele>13</ele>
        <time>2025-01-11T15:25:45Z</time>
      </trkpt>
      <trkpt lat="45.88639" lon="-0.95463">
        <ele>12</ele>
        <time>2025-01-11T15:26:27Z</time>
      </trkpt>
      <trkpt lat="45.88676" lon="-0.95453">
        <ele>12</ele>
        <time>2025-01-11T15:27:18Z</time>
      </trkpt>
      <trkpt lat="45.88658" lon="-0.95379">
        <ele>13</ele>
        <time>2025-01-11T15:28:30Z</time>
      </trkpt>
      <trkpt lat="45.88639" lon="-0.9527">
        <ele>14</ele>
        <time>2025-01-11T15:30:15Z</time>
      </trkpt>
      <trkpt lat="45.88627" lon="-0.9522">
        <ele>13</ele>
        <time>2025-01-11T15:31:04Z</time>
      </trkpt>
      <trkpt lat="45.88609" lon="-0.95178">
        <ele>13</ele>
        <time>2025-01-11T15:31:50Z</time>
      </trkpt>
      <trkpt lat="45.88552" lon="-0.95098">
        <ele>13</ele>
        <time>2025-01-11T15:33:36Z</time>
      </trkpt>
      <trkpt lat="45.88591" lon="-0.94983">
        <ele>13</ele>
        <time>2025-01-11T15:35:35Z</time>
      </trkpt>
      <trkpt lat="45.88606" lon="-0.94956">
        <ele>14</ele>
        <time>2025-01-11T15:36:07Z</time>
      </trkpt>
      <trkpt lat="45.88826" lon="-0.94752">
        <ele>12</ele>
        <time>2025-01-11T15:41:56Z</time>
      </trkpt>
      <trkpt lat="45.88851" lon="-0.94713">
        <ele>12</ele>
        <time>2025-01-11T15:42:46Z</time>
      </trkpt>
      <trkpt lat="45.88854" lon="-0.94711">
        <ele>12</ele>
        <time>2025-01-11T15:42:50Z</time>
      </trkpt>
      <trkpt lat="45.88893" lon="-0.94689">
        <ele>11</ele>
        <time>2025-01-11T15:43:46Z</time>
      </trkpt>
      <trkpt lat="45.88915" lon="-0.94658">
        <ele>10</ele>
        <time>2025-01-11T15:44:27Z</time>
      </trkpt>
      <trkpt lat="45.88932" lon="-0.94613">
        <ele>11</ele>
        <time>2025-01-11T15:45:15Z</time>
      </trkpt>
      <trkpt lat="45.88941" lon="-0.94573">
        <ele>11</ele>
        <time>2025-01-11T15:45:54Z</time>
      </trkpt>
      <trkpt lat="45.89003" lon="-0.94534">
        <ele>12</ele>
        <time>2025-01-11T15:47:24Z</time>
      </trkpt>
      <trkpt lat="45.89008" lon="-0.94531">
        <ele>12</ele>
        <time>2025-01-11T15:47:31Z</time>
      </trkpt>
      <trkpt lat="45.89072" lon="-0.94516">
        <ele>13</ele>
        <time>2025-01-11T15:48:58Z</time>
      </trkpt>
      <trkpt lat="45.89097" lon="-0.94541">
        <ele>12</ele>
        <time>2025-01-11T15:49:38Z</time>
      </trkpt>
      <trkpt lat="45.89192" lon="-0.94451">
        <ele>11</ele>
        <time>2025-01-11T15:52:10Z</time>
      </trkpt>
      <trkpt lat="45.89338" lon="-0.94312">
        <ele>11</ele>
        <time>2025-01-11T15:56:04Z</time>
      </trkpt>
      <trkpt lat="45.89352" lon="-0.94291">
        <ele>11</ele>
        <time>2025-01-11T15:56:31Z</time>
      </trkpt>
      <trkpt lat="45.89373" lon="-0.94319">
        <ele>11</ele>
        <time>2025-01-11T15:57:09Z</time>
      </trkpt>
      <trkpt lat="45.89393" lon="-0.9435">
        <ele>11</ele>
        <time>2025-01-11T15:57:48Z</time>
      </trkpt>
      <trkpt lat="45.89433" lon="-0.94443">
        <ele>10</ele>
        <time>2025-01-11T15:59:30Z</time>
      </trkpt>
      <trkpt lat="45.8947" lon="-0.94526">
        <ele>10</ele>
        <time>2025-01-11T16:01:02Z</time>
      </trkpt>
      <trkpt lat="45.89546" lon="-0.94649">
        <ele>10</ele>
        <time>2025-01-11T16:03:34Z</time>
      </trkpt>
      <trkpt lat="45.89619" lon="-0.94758">
        <ele>10</ele>
        <time>2025-01-11T16:05:55Z</time>
      </trkpt>
      <trkpt lat="45.89678" lon="-0.94823">
        <ele>10</ele>
        <time>2025-01-11T16:07:34Z</time>
      </trkpt>
      <trkpt lat="45.89699" lon="-0.94847">
        <ele>10</ele>
        <time>2025-01-11T16:08:10Z</time>
      </trkpt>
      <trkpt lat="45.89709" lon="-0.94861">
        <ele>10</ele>
        <time>2025-01-11T16:08:28Z</time>
      </trkpt>
      <trkpt lat="45.89719" lon="-0.94877">
        <ele>10</ele>
        <time>2025-01-11T16:08:48Z</time>
      </trkpt>
      <trkpt lat="45.89727" lon="-0.94892">
        <ele>10</ele>
        <time>2025-01-11T16:09:06Z</time>
      </trkpt>
      <trkpt lat="45.89736" lon="-0.9491">
        <ele>10</ele>
        <time>2025-01-11T16:09:27Z</time>
      </trkpt>
      <trkpt lat="45.8974" lon="-0.94922">
        <ele>10</ele>
        <time>2025-01-11T16:09:39Z</time>
      </trkpt>
      <trkpt lat="45.89742" lon="-0.94929">
        <ele>10</ele>
        <time>2025-01-11T16:09:46Z</time>
      </trkpt>
      <trkpt lat="45.89743" lon="-0.94933">
        <ele>10</ele>
        <time>2025-01-11T16:09:50Z</time>
      </trkpt>
      <trkpt lat="45.89747" lon="-0.94946">
        <ele>10</ele>
        <time>2025-01-11T16:10:03Z</time>
      </trkpt>
      <trkpt lat="45.8977" lon="-0.95056">
        <ele>10</ele>
        <time>2025-01-11T16:11:50Z</time>
      </trkpt>
      <trkpt lat="45.89792" lon="-0.95112">
        <ele>10</ele>
        <time>2025-01-11T16:12:49Z</time>
      </trkpt>
      <trkpt lat="45.89812" lon="-0.95111">
        <ele>10</ele>
        <time>2025-01-11T16:13:16Z</time>
      </trkpt>
      <trkpt lat="45.89829" lon="-0.95113">
        <ele>9</ele>
        <time>2025-01-11T16:13:39Z</time>
      </trkpt>
      <trkpt lat="45.89827" lon="-0.9514">
        <ele>10</ele>
        <time>2025-01-11T16:14:04Z</time>
      </trkpt>
      <trkpt lat="45.89837" lon="-0.95145">
        <ele>10</ele>
        <time>2025-01-11T16:14:18Z</time>
      </trkpt>
      <trkpt lat="45.89845" lon="-0.95154">
        <ele>10</ele>
        <time>2025-01-11T16:14:32Z</time>
      </trkpt>
      <trkpt lat="45.89854" lon="-0.95176">
        <ele>10</ele>
        <time>2025-01-11T16:14:56Z</time>
      </trkpt>
      <trkpt lat="45.89856" lon="-0.95189">
        <ele>10</ele>
        <time>2025-01-11T16:15:08Z</time>
      </trkpt>
      <trkpt lat="45.89854" lon="-0.95203">
        <ele>10</ele>
        <time>2025-01-11T16:15:21Z</time>
      </trkpt>
      <trkpt lat="45.89891" lon="-0.95201">
        <ele>10</ele>
        <time>2025-01-11T16:16:11Z</time>
      </trkpt>
      <trkpt lat="45.89899" lon="-0.95199">
        <ele>10</ele>
        <time>2025-01-11T16:16:21Z</time>
      </trkpt>
      <trkpt lat="45.89912" lon="-0.95189">
        <ele>9</ele>
        <time>2025-01-11T16:16:41Z</time>
      </trkpt>
      <trkpt lat="45.89926" lon="-0.95229">
        <ele>10</ele>
        <time>2025-01-11T16:17:23Z</time>
      </trkpt>
      <trkpt lat="45.89933" lon="-0.95229">
        <ele>10</ele>
        <time>2025-01-11T16:17:32Z</time>
      </trkpt>
      <trkpt lat="45.89942" lon="-0.95254">
        <ele>10</ele>
        <time>2025-01-11T16:17:58Z</time>
      </trkpt>
      <trkpt lat="45.8995" lon="-0.95265">
        <ele>10</ele>
        <time>2025-01-11T16:18:13Z</time>
      </trkpt>
      <trkpt lat="45.89969" lon="-0.9531">
        <ele>10</ele>
        <time>2025-01-11T16:19:02Z</time>
      </trkpt>
      <trkpt lat="45.89988" lon="-0.95352">
        <ele>10</ele>
        <time>2025-01-11T16:19:48Z</time>
      </trkpt>
      <trkpt lat="45.89994" lon="-0.95356">
        <ele>10</ele>
        <time>2025-01-11T16:19:57Z</time>
      </trkpt>
      <trkpt lat="45.89985" lon="-0.95401">
        <ele>9</ele>
        <time>2025-01-11T16:20:41Z</time>
      </trkpt>
      <trkpt lat="45.89983" lon="-0.95403">
        <ele>10</ele>
        <time>2025-01-11T16:20:44Z</time>
      </trkpt>
      <trkpt lat="45.89992" lon="-0.95417">
        <ele>9</ele>
        <time>2025-01-11T16:21:02Z</time>
      </trkpt>
      <trkpt lat="45.90036" lon="-0.95484">
        <ele>10</ele>
        <time>2025-01-11T16:22:27Z</time>
      </trkpt>
      <trkpt lat="45.9004" lon="-0.9549">
        <ele>10</ele>
        <time>2025-01-11T16:22:35Z</time>
      </trkpt>
      <trkpt lat="45.90101" lon="-0.95578">
        <ele>11</ele>
        <time>2025-01-11T16:24:30Z</time>
      </trkpt>
      <trkpt lat="45.90122" lon="-0.95611">
        <ele>11</ele>
        <time>2025-01-11T16:25:12Z</time>
      </trkpt>
      <trkpt lat="45.90139" lon="-0.95655">
        <ele>10</ele>
        <time>2025-01-11T16:25:58Z</time>
      </trkpt>
      <trkpt lat="45.90139" lon="-0.95657">
        <ele>10</ele>
        <time>2025-01-11T16:26:00Z</time>
      </trkpt>
      <trkpt lat="45.90163" lon="-0.95717">
        <ele>11</ele>
        <time>2025-01-11T16:27:05Z</time>
      </trkpt>
      <trkpt lat="45.90193" lon="-0.95781">
        <ele>11</ele>
        <time>2025-01-11T16:28:16Z</time>
      </trkpt>
      <trkpt lat="45.90181" lon="-0.95794">
        <ele>11</ele>
        <time>2025-01-11T16:28:36Z</time>
      </trkpt>
      <trkpt lat="45.9017" lon="-0.95812">
        <ele>12</ele>
        <time>2025-01-11T16:28:59Z</time>
      </trkpt>
      <trkpt lat="45.90165" lon="-0.95809">
        <ele>12</ele>
        <time>2025-01-11T16:29:06Z</time>
        <extensions>
          <visugpx:TrkExtension xmlns:visugpx="https://www.visugpx.com/editgpx/">
            <visugpx:node>1</visugpx:node>
            </visugpx:TrkExtension>
        </extensions>
      </trkpt>
    </trkseg>
  </trk>
  <trk>
    <name><![CDATA[Rochefort Pont Transbordeur 8 km GNE-20056099]]></name>
    <extensions>
      <line xmlns="http://www.topografix.com/GPX/gpx_style/0/2">
        <color>00FF00</color>
        <width>4</width>
      </line>
    </extensions>
    <trkseg>
      <trkpt lat="45.91733" lon="-0.96061">
        <ele>4</ele>
        <time>2025-01-11T16:29:11.000Z</time>
      </trkpt>
      <trkpt lat="45.91717" lon="-0.9605">
        <ele>2</ele>
        <time>2025-01-11T16:29:26.430Z</time>
      </trkpt>
      <trkpt lat="45.91715" lon="-0.9606">
        <ele>2</ele>
        <time>2025-01-11T16:29:33.628Z</time>
      </trkpt>
      <trkpt lat="45.91714" lon="-0.96072">
        <ele>3</ele>
        <time>2025-01-11T16:29:46.033Z</time>
      </trkpt>
      <trkpt lat="45.91687" lon="-0.96076">
        <ele>6</ele>
        <time>2025-01-11T16:30:24.903Z</time>
      </trkpt>
      <trkpt lat="45.91687" lon="-0.96076">
        <ele>6</ele>
        <time>2025-01-11T16:30:24.903Z</time>
      </trkpt>
      <trkpt lat="45.9168" lon="-0.96076">
        <ele>7</ele>
        <time>2025-01-11T16:30:36.167Z</time>
      </trkpt>
      <trkpt lat="45.91538" lon="-0.96066">
        <ele>12</ele>
        <time>2025-01-11T16:33:14.066Z</time>
      </trkpt>
      <trkpt lat="45.91537" lon="-0.96066">
        <ele>12</ele>
        <time>2025-01-11T16:33:15.060Z</time>
      </trkpt>
      <trkpt lat="45.91537" lon="-0.96066">
        <ele>12</ele>
        <time>2025-01-11T16:33:15.060Z</time>
      </trkpt>
      <trkpt lat="45.91526" lon="-0.96064">
        <ele>12</ele>
        <time>2025-01-11T16:33:26.084Z</time>
      </trkpt>
      <trkpt lat="45.91497" lon="-0.96043">
        <ele>12</ele>
        <time>2025-01-11T16:33:58.371Z</time>
      </trkpt>
      <trkpt lat="45.9137" lon="-0.95954">
        <ele>10</ele>
        <time>2025-01-11T16:36:12.915Z</time>
      </trkpt>
      <trkpt lat="45.9137" lon="-0.95954">
        <ele>10</ele>
        <time>2025-01-11T16:36:12.915Z</time>
      </trkpt>
      <trkpt lat="45.91366" lon="-0.95951">
        <ele>10</ele>
        <time>2025-01-11T16:36:17.402Z</time>
      </trkpt>
      <trkpt lat="45.91362" lon="-0.95944">
        <ele>10</ele>
        <time>2025-01-11T16:36:23.668Z</time>
      </trkpt>
      <trkpt lat="45.91301" lon="-0.95944">
        <ele>11</ele>
        <time>2025-01-11T16:37:27.491Z</time>
      </trkpt>
      <trkpt lat="45.91256" lon="-0.95946">
        <ele>10</ele>
        <time>2025-01-11T16:38:09.336Z</time>
      </trkpt>
      <trkpt lat="45.91213" lon="-0.95948">
        <ele>9</ele>
        <time>2025-01-11T16:38:49.199Z</time>
      </trkpt>
      <trkpt lat="45.91069" lon="-0.95953">
        <ele>8</ele>
        <time>2025-01-11T16:41:09.402Z</time>
      </trkpt>
      <trkpt lat="45.91064" lon="-0.95956">
        <ele>9</ele>
        <time>2025-01-11T16:41:19.602Z</time>
      </trkpt>
      <trkpt lat="45.91061" lon="-0.95959">
        <ele>9</ele>
        <time>2025-01-11T16:41:23.236Z</time>
      </trkpt>
      <trkpt lat="45.91054" lon="-0.9598">
        <ele>9</ele>
        <time>2025-01-11T16:41:39.345Z</time>
      </trkpt>
      <trkpt lat="45.91039" lon="-0.95974">
        <ele>9</ele>
        <time>2025-01-11T16:41:54.826Z</time>
      </trkpt>
      <trkpt lat="45.91022" lon="-0.95968">
        <ele>8</ele>
        <time>2025-01-11T16:42:10.056Z</time>
      </trkpt>
      <trkpt lat="45.90985" lon="-0.9596">
        <ele>8</ele>
        <time>2025-01-11T16:42:47.258Z</time>
      </trkpt>
      <trkpt lat="45.90951" lon="-0.95957">
        <ele>8</ele>
        <time>2025-01-11T16:43:21.127Z</time>
      </trkpt>
      <trkpt lat="45.90916" lon="-0.95959">
        <ele>8</ele>
        <time>2025-01-11T16:43:55.955Z</time>
      </trkpt>
      <trkpt lat="45.90915" lon="-0.95959">
        <ele>8</ele>
        <time>2025-01-11T16:43:56.949Z</time>
      </trkpt>
      <trkpt lat="45.90895" lon="-0.95954">
        <ele>8</ele>
        <time>2025-01-11T16:44:17.133Z</time>
      </trkpt>
      <trkpt lat="45.90892" lon="-0.95939">
        <ele>7</ele>
        <time>2025-01-11T16:44:26.581Z</time>
      </trkpt>
      <trkpt lat="45.9086" lon="-0.95897">
        <ele>6</ele>
        <time>2025-01-11T16:45:06.755Z</time>
      </trkpt>
      <trkpt lat="45.90853" lon="-0.95884">
        <ele>7</ele>
        <time>2025-01-11T16:45:21.868Z</time>
      </trkpt>
      <trkpt lat="45.9085" lon="-0.95872">
        <ele>7</ele>
        <time>2025-01-11T16:45:30.690Z</time>
      </trkpt>
      <trkpt lat="45.90849" lon="-0.95868">
        <ele>7</ele>
        <time>2025-01-11T16:45:33.630Z</time>
      </trkpt>
      <trkpt lat="45.90847" lon="-0.95843">
        <ele>7</ele>
        <time>2025-01-11T16:45:51.040Z</time>
      </trkpt>
      <trkpt lat="45.90859" lon="-0.95838">
        <ele>7</ele>
        <time>2025-01-11T16:46:03.463Z</time>
      </trkpt>
      <trkpt lat="45.90903" lon="-0.95802">
        <ele>8</ele>
        <time>2025-01-11T16:46:57.000Z</time>
      </trkpt>
      <trkpt lat="45.90976" lon="-0.95725">
        <ele>9</ele>
        <time>2025-01-11T16:48:30.168Z</time>
      </trkpt>
      <trkpt lat="45.91029" lon="-0.95675">
        <ele>9</ele>
        <time>2025-01-11T16:49:33.203Z</time>
      </trkpt>
      <trkpt lat="45.91066" lon="-0.95639">
        <ele>9</ele>
        <time>2025-01-11T16:50:17.629Z</time>
      </trkpt>
      <trkpt lat="45.91105" lon="-0.95612">
        <ele>8</ele>
        <time>2025-01-11T16:50:57.756Z</time>
      </trkpt>
      <trkpt lat="45.91145" lon="-0.95589">
        <ele>8</ele>
        <time>2025-01-11T16:51:40.592Z</time>
      </trkpt>
      <trkpt lat="45.91155" lon="-0.95582">
        <ele>8</ele>
        <time>2025-01-11T16:51:51.651Z</time>
      </trkpt>
      <trkpt lat="45.91186" lon="-0.95525">
        <ele>9</ele>
        <time>2025-01-11T16:52:44.897Z</time>
      </trkpt>
      <trkpt lat="45.91204" lon="-0.95481">
        <ele>9</ele>
        <time>2025-01-11T16:53:20.207Z</time>
      </trkpt>
      <trkpt lat="45.91219" lon="-0.95451">
        <ele>9</ele>
        <time>2025-01-11T16:53:45.764Z</time>
      </trkpt>
      <trkpt lat="45.9127" lon="-0.95385">
        <ele>8</ele>
        <time>2025-01-11T16:54:51.032Z</time>
      </trkpt>
      <trkpt lat="45.91313" lon="-0.95312">
        <ele>8</ele>
        <time>2025-01-11T16:55:57.199Z</time>
      </trkpt>
      <trkpt lat="45.91336" lon="-0.95251">
        <ele>8</ele>
        <time>2025-01-11T16:56:45.195Z</time>
      </trkpt>
      <trkpt lat="45.91348" lon="-0.95225">
        <ele>7</ele>
        <time>2025-01-11T16:57:04.081Z</time>
      </trkpt>
      <trkpt lat="45.9136" lon="-0.95209">
        <ele>7</ele>
        <time>2025-01-11T16:57:20.355Z</time>
      </trkpt>
      <trkpt lat="45.91382" lon="-0.95191">
        <ele>5</ele>
        <time>2025-01-11T16:57:42.379Z</time>
      </trkpt>
      <trkpt lat="45.91392" lon="-0.95175">
        <ele>5</ele>
        <time>2025-01-11T16:57:57.257Z</time>
      </trkpt>
      <trkpt lat="45.91413" lon="-0.95104">
        <ele>5</ele>
        <time>2025-01-11T16:58:50.626Z</time>
      </trkpt>
      <trkpt lat="45.91428" lon="-0.95044">
        <ele>4</ele>
        <time>2025-01-11T16:59:31.812Z</time>
      </trkpt>
      <trkpt lat="45.91436" lon="-0.94988">
        <ele>4</ele>
        <time>2025-01-11T17:00:11.359Z</time>
      </trkpt>
      <trkpt lat="45.91436" lon="-0.94965">
        <ele>3</ele>
        <time>2025-01-11T17:00:25.280Z</time>
      </trkpt>
      <trkpt lat="45.91433" lon="-0.94929">
        <ele>3</ele>
        <time>2025-01-11T17:00:50.362Z</time>
      </trkpt>
      <trkpt lat="45.91428" lon="-0.94872">
        <ele>3</ele>
        <time>2025-01-11T17:01:30.104Z</time>
      </trkpt>
      <trkpt lat="45.91401" lon="-0.94673">
        <ele>5</ele>
        <time>2025-01-11T17:03:56.670Z</time>
      </trkpt>
      <trkpt lat="45.91404" lon="-0.94629">
        <ele>4</ele>
        <time>2025-01-11T17:04:24.396Z</time>
      </trkpt>
      <trkpt lat="45.91399" lon="-0.94557">
        <ele>4</ele>
        <time>2025-01-11T17:05:14.450Z</time>
      </trkpt>
      <trkpt lat="45.91386" lon="-0.9445">
        <ele>3</ele>
        <time>2025-01-11T17:06:26.613Z</time>
      </trkpt>
      <trkpt lat="45.91369" lon="-0.94351">
        <ele>3</ele>
        <time>2025-01-11T17:07:37.153Z</time>
      </trkpt>
      <trkpt lat="45.91362" lon="-0.94302">
        <ele>3</ele>
        <time>2025-01-11T17:08:11.756Z</time>
      </trkpt>
      <trkpt lat="45.91372" lon="-0.94278">
        <ele>3</ele>
        <time>2025-01-11T17:08:31.108Z</time>
      </trkpt>
      <trkpt lat="45.91392" lon="-0.94205">
        <ele>3</ele>
        <time>2025-01-11T17:09:25.381Z</time>
      </trkpt>
      <trkpt lat="45.91406" lon="-0.94166">
        <ele>2</ele>
        <time>2025-01-11T17:09:52.883Z</time>
      </trkpt>
      <trkpt lat="45.91416" lon="-0.94145">
        <ele>2</ele>
        <time>2025-01-11T17:10:10.487Z</time>
      </trkpt>
      <trkpt lat="45.91468" lon="-0.94059">
        <ele>4</ele>
        <time>2025-01-11T17:11:35.776Z</time>
      </trkpt>
      <trkpt lat="45.91451" lon="-0.94041">
        <ele>4</ele>
        <time>2025-01-11T17:11:56.769Z</time>
      </trkpt>
      <trkpt lat="45.91419" lon="-0.94001">
        <ele>5</ele>
        <time>2025-01-11T17:12:42.159Z</time>
      </trkpt>
      <trkpt lat="45.91392" lon="-0.93963">
        <ele>5</ele>
        <time>2025-01-11T17:13:19.731Z</time>
      </trkpt>
      <trkpt lat="45.91342" lon="-0.93878">
        <ele>5</ele>
        <time>2025-01-11T17:14:36.730Z</time>
      </trkpt>
      <trkpt lat="45.91298" lon="-0.93822">
        <ele>5</ele>
        <time>2025-01-11T17:15:35.165Z</time>
      </trkpt>
      <trkpt lat="45.91277" lon="-0.93802">
        <ele>5</ele>
        <time>2025-01-11T17:16:00.213Z</time>
      </trkpt>
      <trkpt lat="45.91266" lon="-0.93796">
        <ele>6</ele>
        <time>2025-01-11T17:16:15.630Z</time>
      </trkpt>
      <trkpt lat="45.91251" lon="-0.938">
        <ele>6</ele>
        <time>2025-01-11T17:16:30.799Z</time>
      </trkpt>
      <trkpt lat="45.9124" lon="-0.93798">
        <ele>7</ele>
        <time>2025-01-11T17:16:45.589Z</time>
      </trkpt>
      <trkpt lat="45.91208" lon="-0.93783">
        <ele>8</ele>
        <time>2025-01-11T17:17:22.323Z</time>
      </trkpt>
      <trkpt lat="45.91199" lon="-0.93787">
        <ele>8</ele>
        <time>2025-01-11T17:17:31.690Z</time>
      </trkpt>
      <trkpt lat="45.91185" lon="-0.93801">
        <ele>9</ele>
        <time>2025-01-11T17:17:52.140Z</time>
      </trkpt>
      <trkpt lat="45.91161" lon="-0.93813">
        <ele>10</ele>
        <time>2025-01-11T17:18:20.746Z</time>
      </trkpt>
      <trkpt lat="45.91137" lon="-0.93821">
        <ele>10</ele>
        <time>2025-01-11T17:18:45.242Z</time>
      </trkpt>
      <trkpt lat="45.91111" lon="-0.93826">
        <ele>10</ele>
        <time>2025-01-11T17:19:11.323Z</time>
      </trkpt>
      <trkpt lat="45.9103" lon="-0.93831">
        <ele>11</ele>
        <time>2025-01-11T17:20:35.078Z</time>
      </trkpt>
      <trkpt lat="45.91015" lon="-0.93835">
        <ele>11</ele>
        <time>2025-01-11T17:20:50.247Z</time>
      </trkpt>
      <trkpt lat="45.90982" lon="-0.93852">
        <ele>11</ele>
        <time>2025-01-11T17:21:25.103Z</time>
      </trkpt>
      <trkpt lat="45.90967" lon="-0.93863">
        <ele>11</ele>
        <time>2025-01-11T17:21:41.846Z</time>
      </trkpt>
      <trkpt lat="45.90941" lon="-0.93881">
        <ele>11</ele>
        <time>2025-01-11T17:22:10.540Z</time>
      </trkpt>
      <trkpt lat="45.90853" lon="-0.93969">
        <ele>11</ele>
        <time>2025-01-11T17:23:57.134Z</time>
      </trkpt>
      <trkpt lat="45.90841" lon="-0.93977">
        <ele>11</ele>
        <time>2025-01-11T17:24:10.286Z</time>
      </trkpt>
      <trkpt lat="45.90836" lon="-0.9395">
        <ele>10</ele>
        <time>2025-01-11T17:24:27.200Z</time>
      </trkpt>
      <trkpt lat="45.90828" lon="-0.9395">
        <ele>10</ele>
        <time>2025-01-11T17:24:35.154Z</time>
      </trkpt>
      <trkpt lat="45.90779" lon="-0.9392">
        <ele>10</ele>
        <time>2025-01-11T17:25:28.110Z</time>
      </trkpt>
      <trkpt lat="45.90751" lon="-0.93909">
        <ele>10</ele>
        <time>2025-01-11T17:25:56.972Z</time>
      </trkpt>
      <trkpt lat="45.90723" lon="-0.93902">
        <ele>10</ele>
        <time>2025-01-11T17:26:25.230Z</time>
      </trkpt>
      <trkpt lat="45.90691" lon="-0.93902">
        <ele>11</ele>
        <time>2025-01-11T17:27:00.326Z</time>
      </trkpt>
      <trkpt lat="45.90642" lon="-0.93904">
        <ele>12</ele>
        <time>2025-01-11T17:27:52.266Z</time>
      </trkpt>
      <trkpt lat="45.90605" lon="-0.93902">
        <ele>12</ele>
        <time>2025-01-11T17:28:29.080Z</time>
      </trkpt>
      <trkpt lat="45.90584" lon="-0.93905">
        <ele>13</ele>
        <time>2025-01-11T17:28:53.465Z</time>
      </trkpt>
      <trkpt lat="45.90546" lon="-0.93918">
        <ele>12</ele>
        <time>2025-01-11T17:29:29.405Z</time>
      </trkpt>
      <trkpt lat="45.90521" lon="-0.93936">
        <ele>11</ele>
        <time>2025-01-11T17:29:54.369Z</time>
      </trkpt>
      <trkpt lat="45.90479" lon="-0.93973">
        <ele>11</ele>
        <time>2025-01-11T17:30:43.350Z</time>
      </trkpt>
      <trkpt lat="45.90437" lon="-0.93997">
        <ele>11</ele>
        <time>2025-01-11T17:31:28.290Z</time>
      </trkpt>
      <trkpt lat="45.90401" lon="-0.94011">
        <ele>11</ele>
        <time>2025-01-11T17:32:05.372Z</time>
      </trkpt>
      <trkpt lat="45.90377" lon="-0.94023">
        <ele>10</ele>
        <time>2025-01-11T17:32:27.820Z</time>
      </trkpt>
      <trkpt lat="45.90295" lon="-0.9408">
        <ele>9</ele>
        <time>2025-01-11T17:33:55.400Z</time>
      </trkpt>
      <trkpt lat="45.90264" lon="-0.94098">
        <ele>9</ele>
        <time>2025-01-11T17:34:28.643Z</time>
      </trkpt>
      <trkpt lat="45.90242" lon="-0.94109">
        <ele>9</ele>
        <time>2025-01-11T17:34:51.804Z</time>
      </trkpt>
      <trkpt lat="45.90151" lon="-0.94133">
        <ele>6</ele>
        <time>2025-01-11T17:36:15.221Z</time>
      </trkpt>
      <trkpt lat="45.90133" lon="-0.94136">
        <ele>6</ele>
        <time>2025-01-11T17:36:33.238Z</time>
      </trkpt>
      <trkpt lat="45.90112" lon="-0.94257">
        <ele>5</ele>
        <time>2025-01-11T17:37:56.538Z</time>
      </trkpt>
      <trkpt lat="45.90088" lon="-0.94374">
        <ele>6</ele>
        <time>2025-01-11T17:39:24.077Z</time>
      </trkpt>
      <trkpt lat="45.90093" lon="-0.94377">
        <ele>6</ele>
        <time>2025-01-11T17:39:29.464Z</time>
      </trkpt>
      <trkpt lat="45.90145" lon="-0.9441">
        <ele>8</ele>
        <time>2025-01-11T17:40:32.601Z</time>
      </trkpt>
      <trkpt lat="45.90174" lon="-0.94429">
        <ele>8</ele>
        <time>2025-01-11T17:41:04.291Z</time>
      </trkpt>
      <trkpt lat="45.90205" lon="-0.94454">
        <ele>8</ele>
        <time>2025-01-11T17:41:39.636Z</time>
      </trkpt>
      <trkpt lat="45.9023" lon="-0.94476">
        <ele>7</ele>
        <time>2025-01-11T17:42:05.935Z</time>
      </trkpt>
      <trkpt lat="45.9024" lon="-0.94493">
        <ele>7</ele>
        <time>2025-01-11T17:42:21.337Z</time>
      </trkpt>
      <trkpt lat="45.90239" lon="-0.94519">
        <ele>7</ele>
        <time>2025-01-11T17:42:39.354Z</time>
      </trkpt>
      <trkpt lat="45.90228" lon="-0.94624">
        <ele>10</ele>
        <time>2025-01-11T17:44:02.871Z</time>
      </trkpt>
      <trkpt lat="45.9018" lon="-0.94831">
        <ele>10</ele>
        <time>2025-01-11T17:46:33.838Z</time>
      </trkpt>
      <trkpt lat="45.90163" lon="-0.94877">
        <ele>10</ele>
        <time>2025-01-11T17:47:09.876Z</time>
      </trkpt>
      <trkpt lat="45.90161" lon="-0.94896">
        <ele>10</ele>
        <time>2025-01-11T17:47:23.172Z</time>
      </trkpt>
      <trkpt lat="45.90158" lon="-0.94897">
        <ele>10</ele>
        <time>2025-01-11T17:47:26.234Z</time>
      </trkpt>
      <trkpt lat="45.90163" lon="-0.94948">
        <ele>10</ele>
        <time>2025-01-11T17:48:01.870Z</time>
      </trkpt>
      <trkpt lat="45.90167" lon="-0.94963">
        <ele>9</ele>
        <time>2025-01-11T17:48:11.596Z</time>
      </trkpt>
      <trkpt lat="45.90181" lon="-0.94997">
        <ele>9</ele>
        <time>2025-01-11T17:48:38.930Z</time>
      </trkpt>
      <trkpt lat="45.90213" lon="-0.95063">
        <ele>10</ele>
        <time>2025-01-11T17:49:37.770Z</time>
      </trkpt>
      <trkpt lat="45.90215" lon="-0.95069">
        <ele>10</ele>
        <time>2025-01-11T17:49:42.373Z</time>
      </trkpt>
      <trkpt lat="45.90201" lon="-0.95087">
        <ele>9</ele>
        <time>2025-01-11T17:49:58.717Z</time>
      </trkpt>
      <trkpt lat="45.90193" lon="-0.95119">
        <ele>10</ele>
        <time>2025-01-11T17:50:25.605Z</time>
      </trkpt>
      <trkpt lat="45.9017" lon="-0.95222">
        <ele>10</ele>
        <time>2025-01-11T17:51:40.451Z</time>
      </trkpt>
      <trkpt lat="45.90134" lon="-0.95206">
        <ele>10</ele>
        <time>2025-01-11T17:52:17.918Z</time>
      </trkpt>
      <trkpt lat="45.90129" lon="-0.95203">
        <ele>10</ele>
        <time>2025-01-11T17:52:23.306Z</time>
      </trkpt>
      <trkpt lat="45.90086" lon="-0.9525">
        <ele>9</ele>
        <time>2025-01-11T17:53:14.080Z</time>
      </trkpt>
      <trkpt lat="45.901" lon="-0.95278">
        <ele>9</ele>
        <time>2025-01-11T17:53:37.936Z</time>
      </trkpt>
      <trkpt lat="45.90152" lon="-0.95386">
        <ele>9</ele>
        <time>2025-01-11T17:55:08.806Z</time>
      </trkpt>
      <trkpt lat="45.90159" lon="-0.95401">
        <ele>9</ele>
        <time>2025-01-11T17:55:21.302Z</time>
      </trkpt>
      <trkpt lat="45.90168" lon="-0.95409">
        <ele>9</ele>
        <time>2025-01-11T17:55:31.825Z</time>
      </trkpt>
      <trkpt lat="45.90171" lon="-0.95405">
        <ele>9</ele>
        <time>2025-01-11T17:55:35.894Z</time>
      </trkpt>
      <trkpt lat="45.90176" lon="-0.95402">
        <ele>9</ele>
        <time>2025-01-11T17:55:41.281Z</time>
      </trkpt>
      <trkpt lat="45.90183" lon="-0.95402">
        <ele>9</ele>
        <time>2025-01-11T17:55:48.241Z</time>
      </trkpt>
      <trkpt lat="45.9019" lon="-0.95409">
        <ele>9</ele>
        <time>2025-01-11T17:55:56.720Z</time>
      </trkpt>
      <trkpt lat="45.90192" lon="-0.95417">
        <ele>9</ele>
        <time>2025-01-11T17:56:02.602Z</time>
      </trkpt>
      <trkpt lat="45.90191" lon="-0.95418">
        <ele>9</ele>
        <time>2025-01-11T17:56:03.813Z</time>
      </trkpt>
      <trkpt lat="45.90192" lon="-0.95417">
        <ele>9</ele>
        <time>2025-01-11T17:56:05.025Z</time>
      </trkpt>
      <trkpt lat="45.90209" lon="-0.95411">
        <ele>9</ele>
        <time>2025-01-11T17:56:22.430Z</time>
      </trkpt>
      <trkpt lat="45.90221" lon="-0.95409">
        <ele>9</ele>
        <time>2025-01-11T17:56:34.441Z</time>
      </trkpt>
      <trkpt lat="45.9023" lon="-0.95408">
        <ele>9</ele>
        <time>2025-01-11T17:56:43.416Z</time>
      </trkpt>
      <trkpt lat="45.90251" lon="-0.9541">
        <ele>9</ele>
        <time>2025-01-11T17:57:04.342Z</time>
      </trkpt>
      <trkpt lat="45.90249" lon="-0.95436">
        <ele>9</ele>
        <time>2025-01-11T17:57:22.441Z</time>
      </trkpt>
      <trkpt lat="45.90252" lon="-0.9545">
        <ele>9</ele>
        <time>2025-01-11T17:57:32.577Z</time>
      </trkpt>
      <trkpt lat="45.90258" lon="-0.95454">
        <ele>10</ele>
        <time>2025-01-11T17:57:43.552Z</time>
      </trkpt>
      <trkpt lat="45.90317" lon="-0.95473">
        <ele>10</ele>
        <time>2025-01-11T17:58:43.669Z</time>
      </trkpt>
      <trkpt lat="45.90325" lon="-0.95485">
        <ele>10</ele>
        <time>2025-01-11T17:58:55.167Z</time>
      </trkpt>
      <trkpt lat="45.90347" lon="-0.95493">
        <ele>10</ele>
        <time>2025-01-11T17:59:17.731Z</time>
      </trkpt>
      <trkpt lat="45.90349" lon="-0.95507">
        <ele>10</ele>
        <time>2025-01-11T17:59:27.619Z</time>
      </trkpt>
      <trkpt lat="45.9036" lon="-0.95517">
        <ele>10</ele>
        <time>2025-01-11T17:59:40.561Z</time>
      </trkpt>
      <trkpt lat="45.90396" lon="-0.9553">
        <ele>10</ele>
        <time>2025-01-11T18:00:17.468Z</time>
      </trkpt>
      <trkpt lat="45.90421" lon="-0.95539">
        <ele>10</ele>
        <time>2025-01-11T18:00:43.093Z</time>
      </trkpt>
      <trkpt lat="45.90426" lon="-0.95534">
        <ele>10</ele>
        <time>2025-01-11T18:00:49.150Z</time>
      </trkpt>
      <trkpt lat="45.90429" lon="-0.9552">
        <ele>10</ele>
        <time>2025-01-11T18:00:59.285Z</time>
      </trkpt>
      <trkpt lat="45.90439" lon="-0.95466">
        <ele>10</ele>
        <time>2025-01-11T18:01:37.947Z</time>
      </trkpt>
      <trkpt lat="45.90443" lon="-0.9546">
        <ele>10</ele>
        <time>2025-01-11T18:01:43.696Z</time>
      </trkpt>
      <trkpt lat="45.90507" lon="-0.95428">
        <ele>9</ele>
        <time>2025-01-11T18:02:48.106Z</time>
      </trkpt>
      <trkpt lat="45.90521" lon="-0.95418">
        <ele>10</ele>
        <time>2025-01-11T18:03:07.187Z</time>
      </trkpt>
      <trkpt lat="45.90557" lon="-0.95379">
        <ele>11</ele>
        <time>2025-01-11T18:03:55.225Z</time>
      </trkpt>
      <trkpt lat="45.90576" lon="-0.95371">
        <ele>11</ele>
        <time>2025-01-11T18:04:14.911Z</time>
      </trkpt>
      <trkpt lat="45.9058" lon="-0.95372">
        <ele>11</ele>
        <time>2025-01-11T18:04:18.947Z</time>
      </trkpt>
      <trkpt lat="45.90583" lon="-0.95375">
        <ele>11</ele>
        <time>2025-01-11T18:04:22.581Z</time>
      </trkpt>
      <trkpt lat="45.90586" lon="-0.95377">
        <ele>11</ele>
        <time>2025-01-11T18:04:25.870Z</time>
      </trkpt>
      <trkpt lat="45.9059" lon="-0.95389">
        <ele>11</ele>
        <time>2025-01-11T18:04:35.075Z</time>
      </trkpt>
      <trkpt lat="45.906" lon="-0.95435">
        <ele>10</ele>
        <time>2025-01-11T18:05:05.544Z</time>
      </trkpt>
      <trkpt lat="45.90605" lon="-0.95499">
        <ele>10</ele>
        <time>2025-01-11T18:05:50.101Z</time>
      </trkpt>
      <trkpt lat="45.90635" lon="-0.95595">
        <ele>10</ele>
        <time>2025-01-11T18:07:02.910Z</time>
      </trkpt>
      <trkpt lat="45.90641" lon="-0.95647">
        <ele>9</ele>
        <time>2025-01-11T18:07:36.489Z</time>
      </trkpt>
      <trkpt lat="45.90643" lon="-0.95684">
        <ele>9</ele>
        <time>2025-01-11T18:08:02.165Z</time>
      </trkpt>
      <trkpt lat="45.90645" lon="-0.95718">
        <ele>9</ele>
        <time>2025-01-11T18:08:25.772Z</time>
      </trkpt>
      <trkpt lat="45.90642" lon="-0.95742">
        <ele>10</ele>
        <time>2025-01-11T18:08:46.137Z</time>
      </trkpt>
      <trkpt lat="45.90632" lon="-0.95793">
        <ele>9</ele>
        <time>2025-01-11T18:09:19.906Z</time>
      </trkpt>
      <trkpt lat="45.90625" lon="-0.95833">
        <ele>9</ele>
        <time>2025-01-11T18:09:48.442Z</time>
      </trkpt>
      <trkpt lat="45.90621" lon="-0.95887">
        <ele>8</ele>
        <time>2025-01-11T18:10:23.120Z</time>
      </trkpt>
      <trkpt lat="45.90684" lon="-0.95891">
        <ele>7</ele>
        <time>2025-01-11T18:11:22.862Z</time>
      </trkpt>
      <trkpt lat="45.90742" lon="-0.95895">
        <ele>7</ele>
        <time>2025-01-11T18:12:20.596Z</time>
      </trkpt>
      <trkpt lat="45.90785" lon="-0.95897">
        <ele>7</ele>
        <time>2025-01-11T18:13:03.373Z</time>
      </trkpt>
      <trkpt lat="45.90823" lon="-0.95896">
        <ele>6</ele>
        <time>2025-01-11T18:13:38.267Z</time>
      </trkpt>
      <trkpt lat="45.90828" lon="-0.95889">
        <ele>6</ele>
        <time>2025-01-11T18:13:45.208Z</time>
      </trkpt>
      <trkpt lat="45.90839" lon="-0.95873">
        <ele>7</ele>
        <time>2025-01-11T18:14:04.305Z</time>
      </trkpt>
      <trkpt lat="45.90849" lon="-0.95868">
        <ele>7</ele>
        <time>2025-01-11T18:14:14.832Z</time>
      </trkpt>
      <trkpt lat="45.9085" lon="-0.95872">
        <ele>7</ele>
        <time>2025-01-11T18:14:17.772Z</time>
      </trkpt>
      <trkpt lat="45.90853" lon="-0.95884">
        <ele>7</ele>
        <time>2025-01-11T18:14:26.594Z</time>
      </trkpt>
      <trkpt lat="45.9086" lon="-0.95897">
        <ele>6</ele>
        <time>2025-01-11T18:14:36.545Z</time>
      </trkpt>
      <trkpt lat="45.90892" lon="-0.95939">
        <ele>7</ele>
        <time>2025-01-11T18:15:22.853Z</time>
      </trkpt>
      <trkpt lat="45.90895" lon="-0.95954">
        <ele>8</ele>
        <time>2025-01-11T18:15:37.434Z</time>
      </trkpt>
      <trkpt lat="45.90915" lon="-0.95959">
        <ele>8</ele>
        <time>2025-01-11T18:15:57.618Z</time>
      </trkpt>
      <trkpt lat="45.90951" lon="-0.95957">
        <ele>8</ele>
        <time>2025-01-11T18:16:33.439Z</time>
      </trkpt>
      <trkpt lat="45.90985" lon="-0.9596">
        <ele>8</ele>
        <time>2025-01-11T18:17:07.308Z</time>
      </trkpt>
      <trkpt lat="45.91022" lon="-0.95968">
        <ele>8</ele>
        <time>2025-01-11T18:17:44.511Z</time>
      </trkpt>
      <trkpt lat="45.91039" lon="-0.95974">
        <ele>9</ele>
        <time>2025-01-11T18:18:05.396Z</time>
      </trkpt>
      <trkpt lat="45.91054" lon="-0.9598">
        <ele>9</ele>
        <time>2025-01-11T18:18:20.877Z</time>
      </trkpt>
      <trkpt lat="45.91061" lon="-0.95959">
        <ele>9</ele>
        <time>2025-01-11T18:18:36.986Z</time>
      </trkpt>
      <trkpt lat="45.91064" lon="-0.95956">
        <ele>9</ele>
        <time>2025-01-11T18:18:40.619Z</time>
      </trkpt>
      <trkpt lat="45.91069" lon="-0.95953">
        <ele>8</ele>
        <time>2025-01-11T18:18:45.333Z</time>
      </trkpt>
      <trkpt lat="45.91213" lon="-0.95948">
        <ele>9</ele>
        <time>2025-01-11T18:21:11.659Z</time>
      </trkpt>
      <trkpt lat="45.91256" lon="-0.95946">
        <ele>10</ele>
        <time>2025-01-11T18:21:57.656Z</time>
      </trkpt>
      <trkpt lat="45.91301" lon="-0.95944">
        <ele>11</ele>
        <time>2025-01-11T18:22:45.634Z</time>
      </trkpt>
      <trkpt lat="45.91362" lon="-0.95944">
        <ele>10</ele>
        <time>2025-01-11T18:23:43.330Z</time>
      </trkpt>
      <trkpt lat="45.91366" lon="-0.95951">
        <ele>10</ele>
        <time>2025-01-11T18:23:49.596Z</time>
      </trkpt>
      <trkpt lat="45.9137" lon="-0.95954">
        <ele>10</ele>
        <time>2025-01-11T18:23:54.082Z</time>
      </trkpt>
      <trkpt lat="45.9137" lon="-0.95954">
        <ele>10</ele>
        <time>2025-01-11T18:23:54.082Z</time>
      </trkpt>
      <trkpt lat="45.91497" lon="-0.96043">
        <ele>12</ele>
        <time>2025-01-11T18:26:20.878Z</time>
      </trkpt>
      <trkpt lat="45.91526" lon="-0.96064">
        <ele>12</ele>
        <time>2025-01-11T18:26:53.165Z</time>
      </trkpt>
      <trkpt lat="45.91537" lon="-0.96066">
        <ele>12</ele>
        <time>2025-01-11T18:27:04.189Z</time>
      </trkpt>
      <trkpt lat="45.91537" lon="-0.96066">
        <ele>12</ele>
        <time>2025-01-11T18:27:04.189Z</time>
      </trkpt>
      <trkpt lat="45.91538" lon="-0.96066">
        <ele>12</ele>
        <time>2025-01-11T18:27:05.183Z</time>
      </trkpt>
      <trkpt lat="45.9168" lon="-0.96076">
        <ele>7</ele>
        <time>2025-01-11T18:29:12.331Z</time>
      </trkpt>
      <trkpt lat="45.91687" lon="-0.96076">
        <ele>6</ele>
        <time>2025-01-11T18:29:18.421Z</time>
      </trkpt>
      <trkpt lat="45.91687" lon="-0.96076">
        <ele>6</ele>
        <time>2025-01-11T18:29:18.421Z</time>
      </trkpt>
      <trkpt lat="45.91714" lon="-0.96072">
        <ele>3</ele>
        <time>2025-01-11T18:29:42.035Z</time>
      </trkpt>
      <trkpt lat="45.91715" lon="-0.9606">
        <ele>2</ele>
        <time>2025-01-11T18:29:49.350Z</time>
        <extensions>
          <visugpx:TrkExtension xmlns:visugpx="https://www.visugpx.com/editgpx/">
            <visugpx:node>1</visugpx:node>
            </visugpx:TrkExtension>
        </extensions>
      </trkpt>
    </trkseg>
  </trk>
</gpx>